• Join FlightAware (Why Join?)
  • Login
  • US Flag 
07:43AM EDT


 

Airport Tracker/Info


-or-


 

Live Flight TrackerFlight Track Log ✈ UAL4236 ✈ 05-Jul-2013 ✈ KELP - KIAH

Flight Track Log - Related Links

Times and Time Zones

All times are in EDT time to prevent confusion due to time zone crossing. See the UAL4236 flight status page for this flight to view local times or setup timezone preferences in your user account.

Time Position Orientation Groundspeed Altitude Reporting Facility
EDT Latitude Longitude Course Direction KTS MPH feet Rate Location/Type
12:11PM 31.7997 -106.3533 100° East 171 197 4,400  Level Albuquerque Center
12:11PM 31.7975 -106.2969 93° East 201 231 5,700 1,320 Climbing Albuquerque Center
12:12PM 31.7889 -106.2156 97° East 251 289 7,000 1,680 Climbing Albuquerque Center
12:13PM 31.7783 -106.1231 98° East 283 326 9,200 1,680 Climbing Albuquerque Center
12:14PM 31.7523 -105.9248 96° East  Level Estimated
12:15PM 31.7352 -105.8125 100° East  Level FlightAware Approximate
12:15PM 31.7672 -106.0261 98° East 298 343 10,500  Level Albuquerque Center
12:16PM 31.7179 -105.6918 100° East  Level FlightAware Approximate
12:16PM 31.7544 -105.9142 98° East 341 392 11,600  Level Albuquerque Center
12:17PM 31.7406 -105.7975 98° East 359 413 12,700 1,020 Climbing Albuquerque Center
12:18PM 31.7278 -105.6756 97° East 375 432 13,800 1,200 Climbing Albuquerque Center
12:19PM 31.7106 -105.5261 98° East 384 442 15,200 1,260 Climbing Albuquerque Center
12:20PM 31.6958 -105.4025 98° East 381 438 16,400 1,200 Climbing Albuquerque Center
12:21PM 31.6819 -105.2783 97° East 382 440 17,700 1,140 Climbing Albuquerque Center
12:22PM 31.6667 -105.1542 98° East 382 440 18,800 1,020 Climbing Albuquerque Center
12:23PM 31.6522 -105.0286 98° East 386 444 19,900 1,080 Climbing Albuquerque Center
12:24PM 31.6367 -104.9017 98° East 390 449 21,100 1,140 Climbing Albuquerque Center
12:25PM 31.6225 -104.7747 97° East 391 450 22,300 1,140 Climbing Albuquerque Center
12:26PM 31.6064 -104.6469 98° East 394 453 23,500 1,200 Climbing Albuquerque Center
12:27PM 31.5881 -104.4942 98° East 393 452 24,800 1,200 Climbing Albuquerque Center
12:28PM 31.5728 -104.3689 98° East 389 448 26,000 1,140 Climbing Albuquerque Center
12:29PM 31.5567 -104.2458 99° East 384 442 27,200 1,200 Climbing Albuquerque Center
12:30PM 31.5419 -104.1228 98° East 382 440 28,500 1,200 Climbing Albuquerque Center
12:31PM 31.5264 -104.0017 99° East 378 435 29,700 1,080 Climbing Albuquerque Center
12:32PM 31.5117 -103.8803 98° East 376 433 30,800 1,200 Climbing Albuquerque Center
12:33PM 31.4922 -103.7431 99° East 375 432 32,200 1,200 Climbing Albuquerque Center
12:34PM 31.4767 -103.6219 99° East 376 433 33,300 1,080 Climbing Albuquerque Center
12:35PM 31.4611 -103.5006 99° East 376 433 34,500 780 Climbing Albuquerque Center
12:36PM 31.4450 -103.3800 99° East 375 432 35,000 240 Climbing Albuquerque Center
12:37PM 31.4308 -103.2522 97° East 392 451 35,000  Level Albuquerque Center
12:38PM 31.4097 -103.0886 99° East 418 481 35,000  Level Albuquerque Center
12:39PM 31.3908 -102.9478 99° East 433 498 35,000  Level Albuquerque Center
12:40PM 31.3736 -102.8067 98° East 438 504 35,000  Level Albuquerque Center
12:41PM 31.3550 -102.6681 99° East 435 501 35,000  Level Albuquerque Center
12:42PM 31.3372 -102.5189 98° East 433 498 35,000  Level Albuquerque Center
12:43PM 31.3219 -102.3853 98° East 431 496 35,000  Level Albuquerque Center
12:44PM 31.3056 -102.2414 98° East 440 506 35,000  Level Albuquerque Center
12:45PM 31.2864 -102.1208 101° East 448 516 35,000  Level Houston Center
12:46PM 31.2664 -101.9822 100° East 442 509 35,000  Level Houston Center
12:47PM 31.2472 -101.8425 99° East 438 504 35,000  Level Houston Center
12:48PM 31.2281 -101.7025 99° East 437 503 35,000  Level Houston Center
12:49PM 31.2086 -101.5622 99° East 438 504 35,000  Level Houston Center
12:50PM 31.1894 -101.4239 99° East 436 502 35,000  Level Houston Center
12:51PM 31.1703 -101.2864 99° East 433 498 35,000  Level Houston Center
12:52PM 31.1511 -101.1500 99° East 429 494 35,000  Level Houston Center
12:53PM 31.1333 -101.0119 99° East 428 493 35,000  Level Houston Center
12:54PM 31.1086 -100.8514 100° East 420 483 35,000  Level Houston Center
12:55PM 31.0897 -100.7169 99° East 419 482 35,000  Level Houston Center
12:56PM 31.0708 -100.5831 99° East 416 479 35,000  Level Houston Center
12:57PM 31.0514 -100.4478 99° East 420 483 35,000  Level Houston Center
12:58PM 31.0311 -100.3119 100° East 423 487 35,000  Level Houston Center
12:59PM 31.0114 -100.1758 100° East 425 489 35,000  Level Houston Center
01:00PM 30.9903 -100.0392 100° East 428 493 35,000  Level Houston Center
01:01PM 30.9694 -99.8994 100° East 435 501 35,000  Level Houston Center
01:02PM 30.9483 -99.7586 100° East 439 505 35,000  Level Houston Center
01:04PM 30.9264 -99.6150 100° East 448 516 35,000  Level Houston Center
01:05PM 30.8997 -99.4397 100° East 456 525 35,000  Level Houston Center
01:06PM 30.8767 -99.2936 100° East 458 527 35,000  Level Houston Center
01:07PM 30.8539 -99.1439 100° East 458 527 35,000  Level Houston Center
01:08PM 30.8297 -98.9964 101° East 460 529 35,000  Level Houston Center
01:09PM 30.8053 -98.8486 101° East 461 531 35,000  Level Houston Center
01:10PM 30.7986 -98.7006 93° East 454 522 35,000  Level Houston Center
01:11PM 30.8008 -98.5519 89° East 455 524 35,000  Level Houston Center
01:12PM 30.8042 -98.4025 88° East 459 528 35,000  Level Houston Center
01:13PM 30.8069 -98.2536 89° East 458 527 35,000  Level Houston Center
01:14PM 30.8094 -98.1033 89° East 461 531 35,000  Level Houston Center
01:15PM 30.8106 -97.9539 89° East 459 528 35,000  Level Houston Center
01:16PM 30.8128 -97.8028 89° East 463 533 35,000  Level Houston Center
01:17PM 30.8153 -97.6525 89° East 463 533 35,000  Level Houston Center
01:18PM 30.8161 -97.4792 90° East 459 528 35,000  Level Houston Center
01:19PM 30.8169 -97.3308 90° East 461 531 35,000  Level Houston Center
01:20PM 30.8142 -97.1825 91° East 474 545 35,000  Level Houston Center
01:21PM 30.7794 -97.0372 106° East 470 541 35,000  Level Houston Center
01:22PM 30.7392 -96.8939 108° East 465 535 35,000 -180 Level Houston Center
01:23PM 30.6992 -96.7483 108° East 468 539 34,700 -1,440 Descending Houston Center
01:24PM 30.6583 -96.6047 108° East 465 535 32,100 -2,940 Descending Houston Center
01:25PM 30.6194 -96.4578 107° East 471 542 28,700 -3,600 Descending Houston Center
01:26PM 30.5919 -96.3586 108° East 476 548 26,300 -4,020 Descending Houston Center
01:26PM 30.5592 -96.2433 108° East 478 550 23,500 -3,960 Descending Houston Center
01:27PM 30.5319 -96.1439 108° East 459 528 20,600 -3,780 Descending Houston Center
01:28PM 30.5011 -96.0339 108° East 421 484 16,900 -3,960 Descending Houston Center
01:29PM 30.4656 -95.9122 109° East 403 464 12,500 -2,760 Descending Houston Center
01:30PM 30.3928 -95.8047 128° Southeast 362 417 11,300 -1,200 Descending Houston Center
01:31PM 30.3122 -95.7500 150° Southeast 340 391 10,100 -1,140 Descending Houston Center
01:32PM 30.2456 -95.7031 149° Southeast 285 328 9,000 -1,320 Descending Houston Center
01:33PM 30.1811 -95.6569 148° Southeast 274 315 7,400 -1,620 Descending Houston Center
01:34PM 30.1194 -95.6122 148° Southeast 265 305 5,700 -1,740 Descending Houston Center
01:35PM 30.0586 -95.5703 149° Southeast 257 296 3,900 -1,800 Descending Houston Center